Terminal Aerodrome Forecast
Issued by NWS

Home | Current Version | Previous Version | Text Only | Print | Product List | Glossary On
Versions: 1 2 3 4 5 6 7 8 9 10 11 12 13 14 15 16 17
000
FTUS44 KLIX 012100 AAA
TAFMCB
TAF AMD
KMCB 012129Z 0121/0218 17010KT P6SM VCSH FEW110
     FM020000 16005KT P6SM BKN070
     FM021000 00000KT 4SM BR BKN008
     FM021200 00000KT 4SM BR BKN003
     FM021400 VRB03KT P6SM BKN015
     FM021500 17004KT P6SM VCTS BKN040CB=

USA.gov is the U.S. government's official web portal to all federal, state and local government web resources and services.